Time;durP1;ratioP1;P1;durP2;ratioP2;P2;SDS_P1;SDS_P2;PMS_P1;PMS_P2;Temp;Humidity;BMP_temperature;BMP_pressure;BME280_temperature;BME280_humidity;BME280_pressure;Samples;Min_cycle;Max_cycle;Signal;HPM_P1;HPM_P2
2022/04/27 00:01:31;;;;;;;10.40;7.50;;;;;;;11.03;64.43;99261.84;5008852;28;20037;-83
2022/04/27 00:03:56;;;;;;;9.50;6.90;;;;;;;10.99;65.09;99258.03;4989309;28;20034;-83
2022/04/27 00:06:22;;;;;;;9.68;7.05;;;;;;;10.96;64.88;99263.06;5010233;28;20033;-83
2022/04/27 00:08:47;;;;;;;8.25;6.25;;;;;;;10.93;64.92;99263.53;5007135;28;20116;-82
2022/04/27 00:11:13;;;;;;;10.27;7.22;;;;;;;10.91;65.09;99261.13;5005047;28;20160;-82
2022/04/27 00:13:38;;;;;;;8.75;6.75;;;;;;;10.92;64.54;99260.03;4991899;28;20037;-83
2022/04/27 00:16:03;;;;;;;10.43;6.63;;;;;;;10.92;64.88;99260.03;4992260;28;20094;-83
2022/04/27 00:18:29;;;;;;;7.47;6.63;;;;;;;10.84;65.00;99259.63;4992445;28;20440;-82
2022/04/27 00:20:54;;;;;;;11.65;6.28;;;;;;;10.87;65.14;99261.84;5009655;28;20025;-82
2022/04/27 00:23:21;;;;;;;9.88;6.70;;;;;;;10.79;64.57;99270.25;5001820;28;20485;-83
2022/04/27 00:25:46;;;;;;;7.35;6.55;;;;;;;10.79;64.59;99276.38;4995616;28;20087;-83
2022/04/27 00:28:11;;;;;;;8.88;6.65;;;;;;;10.76;65.45;99265.38;5010303;28;20037;-83
2022/04/27 00:30:36;;;;;;;8.63;6.93;;;;;;;10.72;65.29;99277.56;4994086;28;20029;-83
2022/04/27 00:33:02;;;;;;;11.50;6.95;;;;;;;10.70;65.07;99272.47;5005067;28;20072;-83
2022/04/27 00:35:27;;;;;;;10.82;7.57;;;;;;;10.74;64.88;99270.13;5007569;28;20481;-83
2022/04/27 00:37:53;;;;;;;10.00;6.85;;;;;;;10.66;65.49;99275.88;5003394;28;20026;-83
2022/04/27 00:40:18;;;;;;;8.52;7.68;;;;;;;10.67;65.25;99280.13;4984427;28;20033;-83
2022/04/27 00:42:43;;;;;;;10.52;7.60;;;;;;;10.63;64.97;99289.69;5008690;28;20405;-83
2022/04/27 00:45:09;;;;;;;8.57;6.95;;;;;;;10.42;65.09;99270.59;4993903;28;20128;-82
2022/04/27 00:47:34;;;;;;;9.13;6.90;;;;;;;10.57;65.07;99285.28;4989607;28;20550;-83
2022/04/27 00:50:02;;;;;;;10.38;7.35;;;;;;;10.50;65.11;99272.91;5007032;28;20548;-83
2022/04/27 00:52:30;;;;;;;9.18;7.03;;;;;;;10.62;64.95;99291.53;5026840;28;20104;-83
2022/04/27 00:54:56;;;;;;;7.43;6.30;;;;;;;10.60;64.95;99298.16;5002803;28;20037;-82
2022/04/27 00:57:25;;;;;;;11.88;8.07;;;;;;;10.48;65.06;99293.66;5010292;28;20464;-83
2022/04/27 00:59:52;;;;;;;14.65;7.10;;;;;;;10.49;64.86;99287.28;5025843;28;20030;-83
2022/04/27 01:02:17;;;;;;;8.20;6.82;;;;;;;10.41;65.20;99281.50;5003794;28;20037;-83
2022/04/27 01:04:43;;;;;;;10.85;7.80;;;;;;;10.47;64.98;99297.38;5005964;28;20083;-83
2022/04/27 01:07:08;;;;;;;12.20;8.15;;;;;;;10.49;64.90;99297.13;4989076;28;20091;-83
2022/04/27 01:09:34;;;;;;;9.38;8.00;;;;;;;10.54;64.39;99295.41;4985125;28;20083;-83
2022/04/27 01:12:01;;;;;;;8.23;7.40;;;;;;;10.47;64.21;99302.72;5007369;28;20539;-83
2022/04/27 01:14:27;;;;;;;15.98;8.10;;;;;;;10.57;64.90;99302.91;5010414;28;20025;-83
2022/04/27 01:16:53;;;;;;;11.25;8.63;;;;;;;10.53;64.84;99309.78;5011855;28;20492;-83
2022/04/27 01:19:19;;;;;;;8.35;7.13;;;;;;;10.46;64.55;99306.44;5024477;28;20067;-83
2022/04/27 01:21:47;;;;;;;10.40;7.22;;;;;;;10.46;64.25;99313.66;5026789;28;20148;-83
2022/04/27 01:24:12;;;;;;;9.02;7.65;;;;;;;10.35;64.50;99319.81;5010029;28;20032;-83
2022/04/27 01:26:37;;;;;;;10.43;7.18;;;;;;;10.39;64.68;99311.09;4997085;28;20025;-82
2022/04/27 01:29:04;;;;;;;11.73;7.20;;;;;;;10.44;65.02;99315.75;5009595;28;20038;-82
2022/04/27 01:31:30;;;;;;;8.82;6.78;;;;;;;10.35;64.15;99312.59;4991596;28;20395;-83
2022/04/27 01:33:55;;;;;;;10.23;7.78;;;;;;;10.40;63.99;99322.56;5008000;28;20037;-83
2022/04/27 01:36:21;;;;;;;12.20;7.18;;;;;;;10.39;64.38;99319.13;4994209;28;20034;-83
2022/04/27 01:38:46;;;;;;;10.63;7.15;;;;;;;10.33;64.38;99321.91;4992207;28;20036;-83
2022/04/27 01:41:12;;;;;;;9.77;7.55;;;;;;;10.31;64.72;99311.44;4984385;28;20037;-83
2022/04/27 01:43:37;;;;;;;9.35;7.00;;;;;;;10.27;65.13;99326.31;5010713;28;20048;-83
2022/04/27 01:46:05;;;;;;;12.82;6.53;;;;;;;10.40;64.10;99334.06;5009367;28;20087;-83
2022/04/27 01:48:31;;;;;;;8.82;7.07;;;;;;;10.46;64.17;99325.09;4988804;28;20044;-83
2022/04/27 01:50:57;;;;;;;9.02;7.47;;;;;;;10.33;64.00;99325.38;5025286;28;20481;-83
2022/04/27 01:56:07;;;;;;;9.40;6.63;;;;;;;10.38;64.03;99330.81;5028376;28;20120;-83
2022/04/27 01:58:32;;;;;;;7.95;6.20;;;;;;;10.18;64.13;99338.38;5021461;28;20483;-83
2022/04/27 02:00:58;;;;;;;8.38;7.47;;;;;;;10.26;64.64;99339.91;4975954;28;20493;-83
2022/04/27 02:03:24;;;;;;;10.20;6.57;;;;;;;10.22;63.73;99336.06;4989384;28;20490;-83
2022/04/27 02:05:50;;;;;;;9.40;6.30;;;;;;;10.20;64.11;99333.63;5022858;28;20072;-83
2022/04/27 02:08:15;;;;;;;8.48;6.80;;;;;;;10.44;63.20;99337.09;4994449;28;20041;-83
2022/04/27 02:10:41;;;;;;;7.97;6.50;;;;;;;10.13;64.04;99351.63;4994848;28;20025;-83
2022/04/27 02:13:08;;;;;;;12.27;6.75;;;;;;;10.12;63.93;99336.66;5008315;28;20032;-82
2022/04/27 02:15:34;;;;;;;8.13;6.78;;;;;;;10.18;64.25;99335.72;5025615;28;20098;-82
2022/04/27 02:18:00;;;;;;;8.43;6.57;;;;;;;10.08;64.03;99358.66;4977030;28;20081;-83
2022/04/27 02:20:26;;;;;;;8.13;6.43;;;;;;;10.06;64.55;99350.91;5007938;28;20374;-83
2022/04/27 02:22:52;;;;;;;8.48;5.90;;;;;;;9.95;64.46;99351.72;5024102;28;20029;-83
2022/04/27 02:25:19;;;;;;;9.65;6.68;;;;;;;10.03;64.21;99345.19;5011569;28;20396;-83
2022/04/27 02:27:45;;;;;;;9.32;7.18;;;;;;;10.09;64.43;99344.28;4974785;28;20474;-82
2022/04/27 02:30:11;;;;;;;12.27;7.35;;;;;;;10.22;63.94;99352.09;5005620;28;20045;-82
2022/04/27 02:32:37;;;;;;;11.65;7.47;;;;;;;10.08;64.09;99345.31;5007744;28;20465;-83
2022/04/27 02:35:04;;;;;;;10.45;6.43;;;;;;;10.11;63.60;99356.34;4991982;28;20056;-83
2022/04/27 02:37:32;;;;;;;12.32;6.47;;;;;;;10.02;63.97;99349.75;5002383;28;20210;-83
2022/04/27 02:39:58;;;;;;;9.90;7.25;;;;;;;10.14;63.57;99349.75;4989129;28;20036;-83
2022/04/27 02:42:23;;;;;;;10.15;7.57;;;;;;;10.04;64.06;99352.16;5007040;28;20108;-83
2022/04/27 02:44:49;;;;;;;9.80;7.53;;;;;;;10.14;63.84;99355.91;4990282;28;20048;-83
2022/04/27 02:47:14;;;;;;;10.23;7.03;;;;;;;9.94;64.19;99355.41;5022943;28;20523;-82
2022/04/27 02:52:23;;;;;;;8.48;7.32;;;;;;;9.85;64.28;99358.66;5006419;28;20048;-83
2022/04/27 02:54:49;;;;;;;8.73;6.95;;;;;;;9.80;65.10;99370.03;5000161;28;20037;-83
2022/04/27 02:57:16;;;;;;;11.02;7.43;;;;;;;9.91;64.65;99377.22;5026647;28;20071;-82
2022/04/27 02:59:42;;;;;;;11.25;7.88;;;;;;;10.00;63.79;99380.34;4994320;28;20048;-82
2022/04/27 03:02:07;;;;;;;9.25;6.75;;;;;;;9.86;64.38;99382.41;5028065;28;20029;-82
2022/04/27 03:04:33;;;;;;;8.40;7.00;;;;;;;9.85;64.56;99388.00;4992558;28;20476;-82
2022/04/27 03:06:59;;;;;;;9.68;7.05;;;;;;;9.86;64.00;99379.75;5008282;28;20469;-82
2022/04/27 03:09:24;;;;;;;10.95;7.75;;;;;;;9.79;64.94;99385.19;4991171;28;20091;-83
2022/04/27 03:11:50;;;;;;;10.02;8.25;;;;;;;9.74;64.33;99386.94;4993367;28;20116;-83
2022/04/27 03:14:15;;;;;;;9.02;7.45;;;;;;;9.80;64.61;99388.69;5009756;28;20151;-82
2022/04/27 03:16:40;;;;;;;12.38;7.13;;;;;;;9.89;64.19;99384.63;4974253;28;20618;-82
2022/04/27 03:19:06;;;;;;;9.43;6.85;;;;;;;9.78;64.01;99385.44;5006286;28;20055;-82
2022/04/27 03:21:32;;;;;;;11.93;7.15;;;;;;;9.75;64.01;99383.22;4992347;28;20158;-82
2022/04/27 03:23:58;;;;;;;10.07;8.20;;;;;;;9.70;64.45;99386.56;4991815;28;20084;-82
2022/04/27 03:26:23;;;;;;;11.20;7.40;;;;;;;9.75;64.25;99388.53;5012605;28;20041;-82
2022/04/27 03:28:49;;;;;;;12.65;7.45;;;;;;;9.68;64.64;99387.84;4973023;28;20034;-82
2022/04/27 03:31:14;;;;;;;8.18;7.38;;;;;;;9.69;64.21;99400.13;5026291;28;20041;-83
2022/04/27 03:33:40;;;;;;;10.40;7.53;;;;;;;9.59;64.99;99402.53;5008849;28;20038;-82
2022/04/27 03:36:08;;;;;;;10.10;7.20;;;;;;;9.62;63.94;99394.09;4984607;28;20021;-83
2022/04/27 03:38:34;;;;;;;13.10;8.20;;;;;;;9.72;63.69;99400.47;5010034;28;20432;-82
2022/04/27 03:40:59;;;;;;;12.40;7.25;;;;;;;9.62;64.34;99402.09;5009742;28;20022;-82
2022/04/27 03:43:24;;;;;;;10.40;6.82;;;;;;;9.58;64.20;99411.56;5014960;28;20113;-82
2022/04/27 03:45:50;;;;;;;11.32;7.45;;;;;;;9.65;64.32;99412.28;5011195;28;20033;-82
2022/04/27 03:48:15;;;;;;;10.02;7.57;;;;;;;9.62;63.95;99410.06;4976904;28;20394;-82
2022/04/27 03:50:40;;;;;;;12.77;7.32;;;;;;;9.67;63.68;99413.69;5010693;28;20551;-82
2022/04/27 03:53:06;;;;;;;13.52;7.80;;;;;;;9.65;64.16;99420.28;5025592;28;20030;-82
2022/04/27 03:55:33;;;;;;;10.70;7.97;;;;;;;9.55;64.08;99426.16;4979419;28;20025;-82
2022/04/27 03:58:00;;;;;;;19.45;8.88;;;;;;;9.55;64.48;99433.34;5006582;28;20033;-82
2022/04/27 04:00:26;;;;;;;15.30;7.65;;;;;;;9.50;64.59;99436.69;4975317;28;20076;-82
2022/04/27 04:02:51;;;;;;;10.05;7.68;;;;;;;9.53;64.63;99438.91;4992615;28;20068;-82
2022/04/27 04:05:16;;;;;;;10.30;7.65;;;;;;;9.56;64.20;99435.78;4992535;28;20505;-82
2022/04/27 04:07:41;;;;;;;8.93;7.07;;;;;;;9.46;64.74;99437.34;4976970;28;20038;-83
2022/04/27 04:10:07;;;;;;;9.65;6.90;;;;;;;9.60;63.73;99441.47;4993380;28;20083;-83
2022/04/27 04:12:33;;;;;;;9.32;7.20;;;;;;;9.49;65.14;99448.41;4990724;28;20551;-83
2022/04/27 04:14:58;;;;;;;10.80;7.30;;;;;;;9.44;64.74;99447.44;4989418;28;20033;-82
2022/04/27 04:17:23;;;;;;;11.15;7.75;;;;;;;9.25;65.37;99445.84;4987860;28;20388;-83
2022/04/27 04:19:49;;;;;;;12.13;7.30;;;;;;;9.41;65.43;99461.22;4976780;28;20041;-83
2022/04/27 04:22:14;;;;;;;9.32;7.63;;;;;;;9.32;65.44;99457.25;5021879;28;20037;-83
2022/04/27 04:28:29;;;;;;;14.20;8.55;;;;;;;9.49;65.23;99461.72;4982640;28;20075;-83
2022/04/27 04:30:10;;;;;;;10.50;7.95;;;;;;;9.42;65.20;99476.16;5018855;28;20463;-83
2022/04/27 04:32:39;;;;;;;10.57;7.10;;;;;;;9.32;65.75;99481.22;4987836;28;20028;-82
2022/04/27 04:35:05;;;;;;;10.63;7.40;;;;;;;9.32;66.16;99487.38;5026241;28;20051;-82
2022/04/27 04:37:34;;;;;;;16.13;7.53;;;;;;;9.37;65.93;99489.38;5006877;28;20071;-82
2022/04/27 04:40:00;;;;;;;10.23;7.65;;;;;;;9.31;66.33;99484.91;5007242;28;20029;-82
2022/04/27 04:42:25;;;;;;;9.57;7.63;;;;;;;9.28;66.50;99496.84;5009632;28;20037;-82
2022/04/27 04:44:50;;;;;;;7.88;6.72;;;;;;;9.37;65.77;99497.34;4991749;28;20056;-82
2022/04/27 04:47:16;;;;;;;9.63;7.15;;;;;;;9.30;66.16;99496.63;4970096;28;20329;-82
2022/04/27 04:49:42;;;;;;;9.15;7.80;;;;;;;9.28;66.52;99498.69;4998316;28;20029;-82
2022/04/27 04:52:07;;;;;;;7.50;6.47;;;;;;;9.26;67.19;99498.91;4995749;28;20029;-82
2022/04/27 04:54:34;;;;;;;8.30;7.20;;;;;;;9.21;67.22;99497.94;5006719;28;20175;-82
2022/04/27 04:56:59;;;;;;;9.73;7.53;;;;;;;9.25;66.80;99499.94;5003942;28;20040;-82
2022/04/27 04:59:25;;;;;;;10.10;8.10;;;;;;;9.28;66.70;99512.00;4991618;28;20121;-82
2022/04/27 05:01:50;;;;;;;11.23;7.03;;;;;;;9.32;67.30;99510.53;5022278;28;20037;-82
2022/04/27 05:04:15;;;;;;;11.18;8.05;;;;;;;9.33;67.09;99507.63;4999035;28;20400;-82
2022/04/27 05:06:41;;;;;;;10.52;8.52;;;;;;;9.35;67.28;99516.19;4973832;28;20049;-82
2022/04/27 05:09:06;;;;;;;8.90;7.60;;;;;;;9.27;67.60;99508.53;4969221;28;20029;-82
2022/04/27 05:11:31;;;;;;;8.50;6.55;;;;;;;9.25;67.55;99505.28;4986444;28;20048;-82
2022/04/27 05:13:57;;;;;;;8.60;7.70;;;;;;;9.38;67.70;99515.78;4999136;28;20313;-82
2022/04/27 05:16:22;;;;;;;14.73;7.95;;;;;;;9.33;68.08;99518.28;4984157;28;20358;-82
2022/04/27 05:18:47;;;;;;;9.07;7.93;;;;;;;9.36;67.60;99509.03;4995201;28;20058;-82
2022/04/27 05:21:13;;;;;;;9.00;7.35;;;;;;;9.40;67.72;99527.00;4969784;28;20409;-82
2022/04/27 05:23:38;;;;;;;8.57;7.30;;;;;;;9.45;68.11;99529.00;5006639;28;20373;-82
2022/04/27 05:26:03;;;;;;;9.30;6.82;;;;;;;9.44;68.07;99530.84;4987030;28;20092;-81
2022/04/27 05:31:54;;;;;;;12.23;7.95;;;;;;;9.45;67.90;99523.69;5010113;28;20030;-81
2022/04/27 05:33:58;;;;;;;9.93;7.30;;;;;;;9.49;67.97;99540.84;5013926;28;20508;-82
2022/04/27 05:36:23;;;;;;;8.25;7.32;;;;;;;9.50;67.96;99532.59;5025184;28;20030;-81
2022/04/27 05:38:49;;;;;;;11.02;7.50;;;;;;;9.59;68.25;99557.91;5003114;28;20049;-82
2022/04/27 05:41:14;;;;;;;15.00;10.40;;;;;;;9.59;68.22;99549.09;4999010;28;20040;-81
2022/04/27 05:43:39;;;;;;;13.50;10.15;;;;;;;9.58;68.60;99545.66;4990621;28;20422;-82
2022/04/27 05:46:06;;;;;;;15.20;10.45;;;;;;;9.61;68.83;99552.38;4974471;28;20033;-82
2022/04/27 05:48:31;;;;;;;18.38;11.40;;;;;;;9.69;69.05;99558.22;4990402;28;20034;-82
2022/04/27 05:50:57;;;;;;;17.50;11.63;;;;;;;9.73;68.70;99554.06;5015865;28;20373;-81
2022/04/27 05:53:22;;;;;;;16.00;10.40;;;;;;;9.72;68.73;99554.25;4993294;28;20041;-82
2022/04/27 05:55:47;;;;;;;13.18;10.23;;;;;;;9.80;68.93;99559.28;4995687;28;20556;-82
2022/04/27 05:58:13;;;;;;;14.07;10.23;;;;;;;9.79;68.01;99560.31;5028003;28;20037;-82
2022/04/27 06:00:38;;;;;;;13.38;10.32;;;;;;;9.79;68.48;99563.81;5009775;28;20043;-82
2022/04/27 06:03:03;;;;;;;12.48;9.07;;;;;;;9.81;68.62;99560.91;5007262;28;20045;-82
2022/04/27 06:05:29;;;;;;;15.02;10.18;;;;;;;9.85;68.80;99566.63;5011886;28;20401;-82
2022/04/27 06:07:54;;;;;;;12.23;9.13;;;;;;;9.84;68.69;99571.13;5019155;28;20037;-82
2022/04/27 06:10:19;;;;;;;14.18;10.15;;;;;;;9.85;68.15;99572.75;5010071;28;20025;-82
2022/04/27 06:12:47;;;;;;;11.57;9.85;;;;;;;9.93;68.33;99574.28;5006694;28;20033;-82
2022/04/27 06:15:13;;;;;;;19.00;10.02;;;;;;;9.92;67.97;99562.81;5025390;28;20042;-82
2022/04/27 06:17:38;;;;;;;14.77;9.80;;;;;;;9.93;67.97;99559.13;5008918;28;20405;-82
2022/04/27 06:20:04;;;;;;;18.20;10.73;;;;;;;9.97;68.64;99570.13;5005863;28;20040;-82
2022/04/27 06:22:30;;;;;;;12.65;10.02;;;;;;;10.01;68.35;99584.63;4991162;28;20041;-82
2022/04/27 06:24:55;;;;;;;12.90;10.35;;;;;;;10.02;68.50;99583.59;5006480;28;20029;-82
2022/04/27 06:27:20;;;;;;;12.25;9.57;;;;;;;10.08;67.70;99580.84;4991816;28;20401;-82
2022/04/27 06:29:46;;;;;;;16.27;10.23;;;;;;;10.03;68.56;99575.38;5003099;28;20033;-82
2022/04/27 06:32:11;;;;;;;12.50;9.48;;;;;;;10.11;68.25;99571.63;4978851;28;20470;-82
2022/04/27 06:34:36;;;;;;;15.43;10.50;;;;;;;10.17;68.32;99587.53;4987180;28;20132;-82
2022/04/27 06:37:02;;;;;;;18.05;10.38;;;;;;;10.18;67.97;99580.31;5029109;28;20396;-82
2022/04/27 06:39:27;;;;;;;15.48;10.63;;;;;;;10.24;67.91;99590.09;4999406;28;20037;-82
2022/04/27 06:41:52;;;;;;;15.95;10.18;;;;;;;10.28;67.60;99577.91;4972830;28;20038;-82
2022/04/27 06:44:17;;;;;;;12.63;9.65;;;;;;;10.29;67.43;99585.69;4978646;28;20120;-82
2022/04/27 06:46:43;;;;;;;17.33;10.63;;;;;;;10.26;67.11;99580.81;5028796;28;20702;-82
2022/04/27 06:49:08;;;;;;;12.35;9.65;;;;;;;10.33;67.66;99584.19;4978969;28;20067;-82
2022/04/27 06:51:33;;;;;;;18.17;10.07;;;;;;;10.41;66.80;99599.06;5014634;28;20041;-82
2022/04/27 06:53:59;;;;;;;15.65;9.85;;;;;;;10.43;66.93;99595.13;5016077;28;20040;-82
2022/04/27 06:56:24;;;;;;;13.30;9.43;;;;;;;10.44;66.83;99609.28;4991783;28;20651;-82
2022/04/27 06:58:50;;;;;;;16.70;9.95;;;;;;;10.42;67.06;99604.16;5029092;28;20029;-82
2022/04/27 07:01:17;;;;;;;16.65;10.05;;;;;;;10.53;66.70;99613.22;5009750;28;20034;-82
2022/04/27 07:03:43;;;;;;;19.33;10.50;;;;;;;10.53;67.19;99615.91;5038055;28;20041;-82
2022/04/27 07:06:09;;;;;;;15.95;10.73;;;;;;;10.59;66.86;99614.19;4995116;28;20035;-82
2022/04/27 07:08:35;;;;;;;15.95;10.60;;;;;;;10.69;66.41;99617.09;4989340;28;20042;-82
2022/04/27 07:11:00;;;;;;;14.90;9.75;;;;;;;10.71;66.15;99618.50;5011143;28;20473;-82
2022/04/27 07:13:26;;;;;;;14.63;11.13;;;;;;;10.68;66.50;99626.16;4978336;28;20541;-82
2022/04/27 07:15:52;;;;;;;14.35;11.13;;;;;;;10.68;66.83;99628.84;5010431;28;20040;-82
2022/04/27 07:18:17;;;;;;;14.00;10.23;;;;;;;10.77;66.30;99625.59;4977431;28;20025;-82
2022/04/27 07:20:43;;;;;;;12.43;9.77;;;;;;;10.82;66.16;99624.88;4977119;28;20120;-82
2022/04/27 07:23:08;;;;;;;17.67;11.10;;;;;;;10.92;65.92;99625.94;5027572;28;20033;-82
2022/04/27 07:25:33;;;;;;;14.90;10.90;;;;;;;10.83;66.02;99623.84;5012420;28;20064;-82
2022/04/27 07:27:59;;;;;;;15.85;10.45;;;;;;;10.94;65.28;99634.53;5011543;28;20033;-82
2022/04/27 07:30:24;;;;;;;15.85;11.00;;;;;;;10.88;65.63;99639.97;5015008;28;20497;-82
2022/04/27 07:32:51;;;;;;;15.63;10.43;;;;;;;10.90;65.91;99641.38;4985293;28;20045;-82
2022/04/27 07:35:18;;;;;;;16.55;11.05;;;;;;;10.85;66.03;99635.94;5007093;28;20083;-82
2022/04/27 07:37:44;;;;;;;16.98;11.85;;;;;;;10.91;66.17;99635.00;4987767;28;20087;-82
2022/04/27 07:40:11;;;;;;;17.50;10.45;;;;;;;10.93;65.73;99640.94;4994990;28;20484;-83
2022/04/27 07:42:37;;;;;;;15.38;9.82;;;;;;;11.06;65.27;99637.22;4989809;28;20116;-82
2022/04/27 07:45:05;;;;;;;20.27;11.10;;;;;;;11.05;64.96;99644.41;5027407;28;20037;-82
2022/04/27 07:47:45;;;;;;;14.60;11.27;;;;;;;11.02;65.27;99633.38;5007646;28;20036;-82
2022/04/27 07:50:13;;;;;;;16.88;11.45;;;;;;;10.99;65.44;99640.00;5029672;28;20044;-82
2022/04/27 07:52:39;;;;;;;15.73;10.77;;;;;;;11.04;65.91;99644.66;5021711;28;20473;-82
2022/04/27 07:55:05;;;;;;;14.55;11.38;;;;;;;11.06;65.43;99630.03;5004610;28;20167;-82
2022/04/27 07:57:31;;;;;;;18.42;11.25;;;;;;;11.17;64.90;99639.91;5027113;28;20079;-82
2022/04/27 07:59:57;;;;;;;17.75;11.23;;;;;;;11.19;65.43;99645.00;5006813;28;20505;-82
2022/04/27 08:02:23;;;;;;;12.70;10.65;;;;;;;11.06;65.76;99639.88;5008769;28;20021;-82
2022/04/27 08:04:48;;;;;;;14.55;10.77;;;;;;;11.22;65.72;99649.88;5007935;28;20128;-82
2022/04/27 08:07:14;;;;;;;14.63;10.68;;;;;;;11.25;65.36;99644.88;4987001;28;20026;-82
2022/04/27 08:09:39;;;;;;;13.63;10.65;;;;;;;11.31;65.20;99648.50;5009082;28;20378;-82
2022/04/27 08:12:05;;;;;;;17.00;10.98;;;;;;;11.32;64.97;99648.25;5006282;28;20048;-82
2022/04/27 08:14:31;;;;;;;15.45;10.98;;;;;;;11.44;65.19;99655.44;4995851;28;20484;-82
2022/04/27 08:16:58;;;;;;;16.77;11.35;;;;;;;11.51;64.54;99659.63;5008118;28;20037;-82
2022/04/27 08:19:24;;;;;;;16.27;11.45;;;;;;;11.49;65.24;99661.72;5006299;28;20028;-83
2022/04/27 08:21:49;;;;;;;17.05;10.73;;;;;;;11.62;64.97;99656.13;5021880;28;20112;-83
2022/04/27 08:24:18;;;;;;;15.95;11.57;;;;;;;11.69;65.53;99664.03;4994079;28;20482;-82
2022/04/27 08:26:44;;;;;;;21.83;11.32;;;;;;;11.65;65.25;99654.84;5016962;28;20064;-82
2022/04/27 08:29:10;;;;;;;16.98;10.65;;;;;;;11.81;64.50;99656.81;5010756;28;20057;-82
2022/04/27 08:31:35;;;;;;;14.50;10.77;;;;;;;11.81;64.69;99665.66;5011226;28;20464;-82
2022/04/27 08:34:00;;;;;;;13.40;10.40;;;;;;;11.93;64.78;99663.75;5009786;28;20039;-82
2022/04/27 08:36:26;;;;;;;15.80;11.57;;;;;;;11.81;65.65;99657.63;5004573;28;20316;-83
2022/04/27 08:38:51;;;;;;;15.10;12.00;;;;;;;11.96;65.65;99657.13;5013081;28;20057;-82
2022/04/27 08:41:16;;;;;;;17.73;12.35;;;;;;;11.96;65.54;99655.28;4975676;28;20049;-83
2022/04/27 08:43:42;;;;;;;22.13;13.60;;;;;;;12.11;65.85;99656.59;4990632;28;20033;-82
2022/04/27 08:46:08;;;;;;;16.73;11.95;;;;;;;12.17;65.88;99669.03;5008073;28;20028;-82
2022/04/27 08:48:34;;;;;;;15.80;11.65;;;;;;;12.20;65.70;99655.19;5023680;28;20040;-83
2022/04/27 08:51:03;;;;;;;16.02;11.25;;;;;;;12.35;65.48;99663.50;5010831;28;20022;-83
2022/04/27 08:53:28;;;;;;;17.25;12.93;;;;;;;12.42;65.37;99667.66;5027326;28;20053;-83
2022/04/27 08:55:55;;;;;;;16.00;10.50;;;;;;;12.41;64.98;99660.66;5011129;28;20057;-83
2022/04/27 08:58:23;;;;;;;19.20;11.32;;;;;;;12.56;65.38;99674.31;5032715;28;20069;-82
2022/04/27 09:00:49;;;;;;;20.17;13.13;;;;;;;12.65;65.20;99662.16;5009217;28;20139;-82
2022/04/27 09:03:36;;;;;;;13.93;10.98;;;;;;;12.64;65.17;99665.91;4974445;28;20033;-83
2022/04/27 09:06:12;;;;;;;17.58;12.48;;;;;;;12.64;65.47;99651.72;5010465;28;20018;-82
2022/04/27 09:08:49;;;;;;;18.95;11.45;;;;;;;12.77;64.94;99662.94;4988699;28;20195;-82
2022/04/27 09:11:15;;;;;;;17.23;11.73;;;;;;;12.87;64.28;99664.94;4992124;28;20112;-83
2022/04/27 09:13:53;;;;;;;15.35;12.05;;;;;;;13.02;64.21;99667.88;5009538;28;20401;-82
2022/04/27 09:16:21;;;;;;;19.30;11.35;;;;;;;13.01;nan;99674.28;5027510;28;20104;-82
2022/04/27 09:21:55;;;;;;;15.13;11.07;;;;;;;13.13;63.46;99677.72;5027197;28;20107;-82
2022/04/27 09:24:21;;;;;;;14.45;11.60;;;;;;;13.15;64.10;99661.41;4988544;28;20026;-82
2022/04/27 09:27:02;;;;;;;17.08;12.35;;;;;;;13.36;64.18;99672.19;5005143;28;20033;-82
2022/04/27 09:29:27;;;;;;;15.23;11.18;;;;;;;13.37;64.21;99667.63;4990903;28;20038;-83
2022/04/27 09:31:59;;;;;;;16.02;11.18;;;;;;;13.49;63.44;99666.47;4989715;28;20044;-82
2022/04/27 09:34:29;;;;;;;16.73;11.60;;;;;;;13.46;63.53;99655.41;5010312;28;20500;-83
2022/04/27 09:36:59;;;;;;;16.55;11.27;;;;;;;13.61;63.46;99660.19;5027712;28;20029;-82
2022/04/27 09:39:25;;;;;;;15.93;12.10;;;;;;;13.78;63.71;99674.38;5012204;28;20025;-83
2022/04/27 09:41:51;;;;;;;15.27;12.55;;;;;;;13.82;63.68;99668.25;4998334;28;20040;-82
2022/04/27 09:44:28;;;;;;;16.90;13.00;;;;;;;13.86;63.70;99664.00;4989299;28;20112;-83
2022/04/27 09:46:53;;;;;;;14.82;11.73;;;;;;;14.00;63.33;99665.25;5024924;28;20053;-83
2022/04/27 09:49:19;;;;;;;20.23;11.90;;;;;;;14.12;62.95;99655.19;5006104;28;20142;-83
2022/04/27 09:51:48;;;;;;;18.13;12.02;;;;;;;14.27;62.99;99660.75;5003391;28;20022;-83
2022/04/27 09:54:19;;;;;;;17.02;12.57;;;;;;;14.33;62.96;99650.09;5003216;28;20112;-83
2022/04/27 09:56:50;;;;;;;17.95;11.40;;;;;;;14.44;62.74;99663.34;5006423;28;20397;-83
2022/04/27 09:59:17;;;;;;;13.73;10.68;;;;;;;14.55;62.52;99665.06;5011381;28;20079;-83
2022/04/27 10:01:43;;;;;;;15.00;10.90;;;;;;;14.70;62.03;99675.97;5014771;28;20033;-83
2022/04/27 10:04:10;;;;;;;17.15;11.77;;;;;;;14.71;62.22;99656.09;5025390;28;20443;-83
2022/04/27 10:06:36;;;;;;;15.27;11.35;;;;;;;14.91;61.30;99661.66;4996631;28;20041;-83
2022/04/27 10:09:03;;;;;;;17.13;11.50;;;;;;;15.00;61.32;99670.84;5015192;28;20405;-83
2022/04/27 10:11:32;;;;;;;17.30;11.00;;;;;;;15.03;61.08;99674.91;4999322;28;20426;-83
2022/04/27 10:13:58;;;;;;;15.52;11.35;;;;;;;15.09;61.22;99665.84;5015472;28;20402;-82
2022/04/27 10:16:24;;;;;;;33.45;12.95;;;;;;;15.14;60.62;99668.53;5015853;28;20033;-82
2022/04/27 10:18:53;;;;;;;143.43;28.58;;;;;;;15.35;60.27;99670.31;5018369;28;20122;-82
2022/04/27 10:22:12;;;;;;;210.05;38.15;;;;;;;15.39;59.52;99670.59;5011634;28;20041;-81
2022/04/27 10:24:37;;;;;;;48.60;17.98;;;;;;;15.49;60.05;99670.69;5023454;28;20080;-82
2022/04/27 10:27:24;;;;;;;33.20;15.48;;;;;;;15.61;58.90;99660.53;5012396;28;20060;-82
2022/04/27 10:29:51;;;;;;;21.23;12.88;;;;;;;15.67;59.41;99656.81;5031566;28;20389;-82
2022/04/27 10:32:36;;;;;;;18.75;11.32;;;;;;;15.90;58.27;99663.66;4997687;28;20029;-82
2022/04/27 10:35:30;;;;;;;15.35;11.73;;;;;;;15.88;58.28;99660.41;5006884;28;20108;-83
2022/04/27 10:38:02;;;;;;;15.32;11.73;;;;;;;15.81;58.15;99660.66;5006775;28;20036;-82
2022/04/27 10:40:30;;;;;;;13.18;10.65;;;;;;;16.24;57.58;99654.88;4994433;28;21004;-81
2022/04/27 10:43:08;;;;;;;17.35;11.02;;;;;;;16.24;56.87;99659.44;5014581;28;20033;-82
2022/04/27 10:45:35;;;;;;;14.10;10.50;;;;;;;16.33;57.11;99645.22;5012630;28;20112;-81
2022/04/27 10:48:04;;;;;;;11.75;10.38;;;;;;;16.43;56.46;99647.91;5030967;28;20030;-83
2022/04/27 10:50:33;;;;;;;19.40;10.63;;;;;;;16.46;55.57;99642.00;5010304;28;20516;-83
2022/04/27 10:53:15;;;;;;;14.43;11.98;;;;;;;16.60;55.63;99652.28;5010773;28;20033;-83
2022/04/27 10:55:51;;;;;;;17.30;11.70;;;;;;;16.61;55.33;99637.72;5029360;28;20384;-82
2022/04/27 10:58:17;;;;;;;20.27;10.93;;;;;;;16.65;54.90;99642.31;4995765;28;20022;-82
2022/04/27 11:01:01;;;;;;;16.17;9.82;;;;;;;16.88;54.88;99651.78;4994033;28;20029;-82
2022/04/27 11:03:34;;;;;;;12.90;8.73;;;;;;;16.94;55.14;99648.81;4995023;28;20026;-83
2022/04/27 11:06:12;;;;;;;15.48;9.75;;;;;;;17.11;54.76;99643.94;5011838;28;20045;-83
2022/04/27 11:08:59;;;;;;;11.88;6.95;;;;;;;17.26;54.40;99643.09;4990362;28;20120;-83
2022/04/27 11:11:26;;;;;;;12.10;7.95;;;;;;;17.37;54.70;99628.50;5004269;28;20037;-83
2022/04/27 11:13:59;;;;;;;10.70;8.10;;;;;;;17.47;53.86;99647.41;5003473;28;20067;-83
2022/04/27 11:16:24;;;;;;;10.27;8.05;;;;;;;17.44;54.38;99637.13;5026923;28;20025;-83
2022/04/27 11:18:55;;;;;;;7.38;6.47;;;;;;;17.67;54.30;99635.75;4991888;28;20036;-83
2022/04/27 11:21:22;;;;;;;13.73;7.20;;;;;;;17.72;54.40;99628.44;5006703;28;20033;-83
2022/04/27 11:23:48;;;;;;;8.38;6.80;;;;;;;17.76;53.85;99636.78;5008443;28;20134;-83
2022/04/27 11:26:14;;;;;;;11.93;7.15;;;;;;;17.75;54.29;99633.31;5027577;28;20105;-83
2022/04/27 11:28:42;;;;;;;9.23;6.55;;;;;;;17.74;54.12;99630.84;4989890;28;20123;-83
2022/04/27 11:31:07;;;;;;;8.02;5.85;;;;;;;17.98;53.34;99638.06;5007272;28;20497;-84
2022/04/27 11:33:39;;;;;;;7.10;4.93;;;;;;;18.06;54.12;99642.09;4993499;28;20170;-83
2022/04/27 11:36:04;;;;;;;8.73;6.40;;;;;;;18.19;53.16;99630.66;4976240;28;20117;-83
2022/04/27 11:38:37;;;;;;;7.20;5.90;;;;;;;18.30;52.90;99624.13;5005283;28;20124;-83
2022/04/27 11:41:14;;;;;;;9.07;6.00;;;;;;;18.57;53.14;99629.91;4985337;28;20080;-83